createdAt,value
2022-11-15T00:02:02.313Z,100220.59
2022-11-15T00:04:29.108Z,100219.47
2022-11-15T00:06:55.829Z,100217.78
2022-11-15T00:09:22.504Z,100216.97
2022-11-15T00:11:49.119Z,100213.31
2022-11-15T00:14:15.725Z,100205.72
2022-11-15T00:16:42.458Z,100202.91
2022-11-15T00:19:09.128Z,100199.28
2022-11-15T00:21:35.890Z,100195.97
2022-11-15T00:24:02.629Z,100201.59
2022-11-15T00:26:29.213Z,100196.31
2022-11-15T00:28:55.943Z,100187.06
2022-11-15T00:31:22.629Z,100181.44
2022-11-15T00:33:49.237Z,100176.66
2022-11-15T00:36:15.950Z,100174.16
2022-11-15T00:38:42.661Z,100173.69
2022-11-15T00:41:10.351Z,100172.84
2022-11-15T00:43:37.548Z,100162.75
2022-11-15T00:46:04.280Z,100159.97
2022-11-15T00:48:31.465Z,100159.13
2022-11-15T00:50:58.662Z,100147.06
2022-11-15T00:53:25.305Z,100147.38
2022-11-15T00:55:51.928Z,100138.16
2022-11-15T00:58:18.557Z,100130.88
2022-11-15T01:00:45.282Z,100122.44
2022-11-15T01:03:11.975Z,100118.81
2022-11-15T01:05:38.979Z,100115.19
2022-11-15T01:08:05.872Z,100098.13
2022-11-15T01:10:32.531Z,100108.22
2022-11-15T01:12:59.583Z,100104.59
2022-11-15T01:15:26.515Z,100098.47
2022-11-15T01:17:53.139Z,100097.63
2022-11-15T01:20:20.083Z,100091.19
2022-11-15T01:22:48.468Z,100096.31
2022-11-15T01:25:15.519Z,100088.72
2022-11-15T01:27:42.176Z,100089.88
2022-11-15T01:30:12.537Z,100074.19
2022-11-15T01:32:39.212Z,100063.78
2022-11-15T01:35:05.936Z,100072.19
2022-11-15T01:37:32.566Z,100060.13
2022-11-15T01:39:59.286Z,100056.50
2022-11-15T01:42:25.897Z,100052.38
2022-11-15T01:44:53.090Z,100054.69
2022-11-15T01:47:26.224Z,100047.09
2022-11-15T01:50:04.108Z,100039.81
2022-11-15T01:52:32.654Z,100045.78
2022-11-15T01:55:05.045Z,100044.63
2022-11-15T01:57:31.984Z,100031.75
2022-11-15T01:59:59.764Z,100032.06
2022-11-15T02:02:26.760Z,100015.56
2022-11-15T02:04:53.353Z,100014.41
2022-11-15T02:07:21.196Z,100009.09
2022-11-15T02:09:47.968Z,100007.47
2022-11-15T02:12:16.785Z,100007.81
2022-11-15T02:14:46.924Z,100000.53
2022-11-15T02:17:27.627Z,99992.09
2022-11-15T02:19:54.230Z,100000.53
2022-11-15T02:22:35.944Z,99990.44
2022-11-15T02:25:02.629Z,99975.63
2022-11-15T02:27:43.272Z,99964.38
2022-11-15T02:30:15.746Z,99971.16
2022-11-15T02:32:47.020Z,99973.81
2022-11-15T02:35:19.423Z,99964.22
2022-11-15T02:37:50.419Z,99958.59
2022-11-15T02:40:40.238Z,99963.72
2022-11-15T02:43:34.418Z,99946.53
2022-11-15T02:46:10.797Z,99939.28
2022-11-15T02:48:38.131Z,99935.66
2022-11-15T02:51:05.275Z,99939.63
2022-11-15T02:53:32.332Z,99938.47
2022-11-15T02:55:59.749Z,99936.81
2022-11-15T02:58:45.104Z,99919.00
2022-11-15T03:01:11.762Z,99916.66
2022-11-15T03:03:44.433Z,99906.09
2022-11-15T03:06:20.659Z,99910.91
2022-11-15T03:08:50.016Z,99900.03
2022-11-15T03:11:18.099Z,99893.56
2022-11-15T03:14:03.793Z,99891.41
2022-11-15T03:16:49.234Z,99876.22
2022-11-15T03:19:23.494Z,99870.63
2022-11-15T03:21:50.451Z,99880.19
2022-11-15T03:24:24.696Z,99875.75
2022-11-15T03:26:54.034Z,99874.94
2022-11-15T03:29:23.497Z,99875.25
2022-11-15T03:31:56.056Z,99868.81
2022-11-15T03:34:25.818Z,99858.75
2022-11-15T03:36:53.254Z,99851.50
2022-11-15T03:39:20.983Z,99854.31
2022-11-15T03:42:05.524Z,99851.16
2022-11-15T03:44:51.975Z,99844.25
2022-11-15T03:47:24.916Z,99844.56
2022-11-15T03:49:53.958Z,99843.75
2022-11-15T03:52:21.507Z,99838.13
2022-11-15T03:54:55.880Z,99839.78
2022-11-15T03:57:22.971Z,99834.50
2022-11-15T03:59:49.782Z,99826.44
2022-11-15T04:02:16.544Z,99821.97
2022-11-15T04:04:43.194Z,99825.94
2022-11-15T04:07:09.812Z,99818.84
2022-11-15T04:09:57.073Z,99811.91
2022-11-15T04:12:32.000Z,99807.63
2022-11-15T04:15:08.606Z,99809.59
2022-11-15T04:17:36.615Z,99799.53
2022-11-15T04:20:22.918Z,99799.03
2022-11-15T04:23:07.977Z,99796.72
2022-11-15T04:25:34.642Z,99781.38
2022-11-15T04:28:01.357Z,99795.41
2022-11-15T04:30:28.200Z,99778.91
2022-11-15T04:32:54.906Z,99771.31
2022-11-15T04:35:21.683Z,99764.88
2022-11-15T04:37:49.541Z,99759.59
2022-11-15T04:40:16.437Z,99763.22
2022-11-15T04:42:43.800Z,99755.97
2022-11-15T04:45:11.474Z,99752.00
2022-11-15T04:47:38.091Z,99743.91
2022-11-15T04:50:05.338Z,99733.50
2022-11-15T04:52:36.293Z,99722.66
2022-11-15T04:55:07.997Z,99721.00
2022-11-15T04:57:34.940Z,99724.63
2022-11-15T05:00:01.767Z,99721.00
2022-11-15T05:02:56.580Z,99713.72
2022-11-15T05:05:23.282Z,99711.41
2022-11-15T05:07:49.917Z,99702.50
2022-11-15T05:10:16.653Z,99708.94
2022-11-15T05:12:43.456Z,99691.28
2022-11-15T05:15:10.378Z,99691.59
2022-11-15T05:17:37.056Z,99696.06
2022-11-15T05:20:03.808Z,99683.19
2022-11-15T05:22:30.430Z,99674.78
2022-11-15T05:24:57.044Z,99675.97
2022-11-15T05:27:23.617Z,99663.91
2022-11-15T05:29:50.259Z,99654.66
2022-11-15T05:32:17.928Z,99658.63
2022-11-15T05:34:44.671Z,99656.66
2022-11-15T05:37:11.427Z,99658.63
2022-11-15T05:39:39.147Z,99635.72
2022-11-15T05:42:09.629Z,99636.50
2022-11-15T05:44:37.447Z,99636.50
2022-11-15T05:47:04.887Z,99633.72
2022-11-15T05:49:35.959Z,99640.50
2022-11-15T05:52:04.622Z,99630.44
2022-11-15T05:54:32.296Z,99612.28
2022-11-15T05:56:58.932Z,99614.75
2022-11-15T05:59:25.844Z,99612.78
2022-11-15T06:01:52.541Z,99603.53
2022-11-15T06:04:19.227Z,99603.88
2022-11-15T06:06:45.972Z,99607.84
2022-11-15T06:09:12.893Z,99606.22
2022-11-15T06:11:39.489Z,99611.50
2022-11-15T06:14:06.294Z,99594.28
2022-11-15T06:16:32.908Z,99598.06
2022-11-15T06:18:59.690Z,99598.88
2022-11-15T06:21:28.983Z,99590.59
2022-11-15T06:23:55.643Z,99597.53
2022-11-15T06:26:22.390Z,99591.22
2022-11-15T06:28:49.062Z,99585.75
2022-11-15T06:31:15.703Z,99585.53
2022-11-15T06:33:42.517Z,99586.50
2022-11-15T06:36:16.101Z,99579.06
2022-11-15T06:38:44.492Z,99580.81
2022-11-15T06:41:11.984Z,99573.84
2022-11-15T06:43:39.435Z,99574.78
2022-11-15T06:46:06.491Z,99570.94
2022-11-15T06:48:33.676Z,99560.31
2022-11-15T06:51:01.578Z,99557.63
2022-11-15T06:53:29.198Z,99555.44
2022-11-15T06:55:59.340Z,99552.41
2022-11-15T06:58:26.002Z,99547.44
2022-11-15T07:00:52.622Z,99544.75
2022-11-15T07:03:19.521Z,99545.00
2022-11-15T07:05:56.089Z,99539.16
2022-11-15T07:08:23.348Z,99526.06
2022-11-15T07:10:50.023Z,99527.81
2022-11-15T07:13:16.722Z,99521.16
2022-11-15T07:15:43.401Z,99524.91
2022-11-15T07:18:10.046Z,99516.25
2022-11-15T07:20:36.653Z,99514.38
2022-11-15T07:23:04.068Z,99515.66
2022-11-15T07:25:30.791Z,99518.59
2022-11-15T07:27:58.267Z,99507.84
2022-11-15T07:30:25.581Z,99507.13
2022-11-15T07:33:01.160Z,99501.97
2022-11-15T07:35:28.521Z,99507.22
2022-11-15T07:37:58.911Z,99513.34
2022-11-15T07:40:26.457Z,99502.53
2022-11-15T07:43:04.525Z,99503.03
2022-11-15T07:45:31.227Z,99486.97
2022-11-15T07:47:58.295Z,99492.22
2022-11-15T07:50:25.019Z,99493.88
2022-11-15T07:52:58.464Z,99494.59
2022-11-15T07:55:26.012Z,99493.78
2022-11-15T07:57:52.730Z,99488.16
2022-11-15T08:00:19.506Z,99480.06
2022-11-15T08:02:47.243Z,99474.44
2022-11-15T08:05:14.195Z,99465.19
2022-11-15T08:07:45.508Z,99470.81
2022-11-15T08:10:13.117Z,99463.53
2022-11-15T08:12:39.757Z,99463.53
2022-11-15T08:15:06.796Z,99457.91
2022-11-15T08:17:35.173Z,99456.66
2022-11-15T08:20:01.753Z,99451.84
2022-11-15T08:22:28.478Z,99441.78
2022-11-15T08:24:55.073Z,99446.34
2022-11-15T08:27:21.756Z,99436.38
2022-11-15T08:29:51.198Z,99441.28
2022-11-15T08:32:19.060Z,99440.81
2022-11-15T08:34:45.918Z,99435.19
2022-11-15T08:37:12.543Z,99432.03
2022-11-15T08:39:39.186Z,99439.31
2022-11-15T08:42:05.802Z,99439.75
2022-11-15T08:44:32.443Z,99430.16
2022-11-15T08:46:59.138Z,99418.56
2022-11-15T08:49:25.893Z,99414.56
2022-11-15T08:51:52.699Z,99407.78
2022-11-15T08:54:19.380Z,99409.41
2022-11-15T08:56:46.057Z,99408.25
2022-11-15T08:59:12.676Z,99407.09
2022-11-15T09:01:39.303Z,99407.88
2022-11-15T09:04:06.228Z,99401.09
2022-11-15T09:06:32.873Z,99401.91
2022-11-15T09:08:59.572Z,99394.63
2022-11-15T09:11:27.663Z,99385.03
2022-11-15T09:13:54.310Z,99376.59
2022-11-15T09:16:22.357Z,99379.41
2022-11-15T09:18:49.116Z,99365.34
2022-11-15T09:21:15.750Z,99371.81
2022-11-15T09:23:42.544Z,99362.53
2022-11-15T09:26:09.248Z,99366.19
2022-11-15T09:28:37.719Z,99360.22
2022-11-15T09:31:05.613Z,99347.66
2022-11-15T09:33:32.623Z,99357.25
2022-11-15T09:36:03.394Z,99344.41
2022-11-15T09:38:30.554Z,99346.41
2022-11-15T09:41:12.894Z,99344.41
2022-11-15T09:43:52.003Z,99339.13
2022-11-15T09:46:19.152Z,99325.06
2022-11-15T09:48:57.349Z,99327.41
2022-11-15T09:51:48.056Z,99309.75
2022-11-15T09:54:52.274Z,99313.34
2022-11-15T09:57:19.788Z,99308.94
2022-11-15T09:59:46.395Z,99298.50
2022-11-15T10:02:25.168Z,99299.69
2022-11-15T10:04:52.920Z,99296.03
2022-11-15T10:07:27.099Z,99294.41
2022-11-15T10:09:58.301Z,99288.78
2022-11-15T10:12:26.712Z,99285.16
2022-11-15T10:14:59.693Z,99282.34
2022-11-15T10:17:33.703Z,99277.88
2022-11-15T10:20:08.597Z,99283.50
2022-11-15T10:23:01.237Z,99269.81
2022-11-15T10:25:29.203Z,99268.19
2022-11-15T10:28:04.952Z,99269.34
2022-11-15T10:30:39.177Z,99248.03
2022-11-15T10:33:13.232Z,99241.97
2022-11-15T10:35:40.430Z,99241.16
2022-11-15T10:38:08.654Z,99228.25
2022-11-15T10:40:35.823Z,99221.81
2022-11-15T10:43:11.402Z,99215.38
2022-11-15T10:45:38.663Z,99218.56
2022-11-15T10:48:24.750Z,99207.31
2022-11-15T10:50:52.966Z,99203.22
2022-11-15T10:53:31.963Z,99194.78
2022-11-15T10:56:01.800Z,99194.34
2022-11-15T10:58:42.970Z,99192.69
2022-11-15T11:01:14.210Z,99192.22
2022-11-15T11:03:42.025Z,99183.00
2022-11-15T11:06:14.386Z,99179.38
2022-11-15T11:09:01.415Z,99172.47
2022-11-15T11:11:47.756Z,99166.03
2022-11-15T11:14:19.005Z,99162.78
2022-11-15T11:17:06.346Z,99161.94
2022-11-15T11:19:36.063Z,99158.31
2022-11-15T11:22:07.113Z,99149.06
2022-11-15T11:24:47.466Z,99135.38
2022-11-15T11:27:29.203Z,99145.00
2022-11-15T11:30:04.874Z,99136.91
2022-11-15T11:32:55.092Z,99129.66
2022-11-15T11:35:35.450Z,99128.84
2022-11-15T11:38:37.388Z,99127.22
2022-11-15T11:41:09.277Z,99108.72
2022-11-15T11:43:47.854Z,99108.25
2022-11-15T11:46:20.336Z,99108.16
2022-11-15T11:48:52.976Z,99098.91
2022-11-15T11:51:22.418Z,99082.41
2022-11-15T11:53:53.279Z,99086.03
2022-11-15T11:56:26.339Z,99082.78
2022-11-15T11:58:54.863Z,99074.72
2022-11-15T12:01:26.226Z,99063.38
2022-11-15T12:04:02.695Z,99058.94
2022-11-15T12:06:43.743Z,99047.25
2022-11-15T12:09:16.509Z,99043.97
2022-11-15T12:11:57.378Z,99035.09
2022-11-15T12:14:26.823Z,99025.06
2022-11-15T12:16:53.409Z,99028.22
2022-11-15T12:19:20.111Z,99022.94
2022-11-15T12:22:00.933Z,99017.66
2022-11-15T12:24:41.903Z,99018.03
2022-11-15T12:27:15.733Z,99002.72
2022-11-15T12:29:50.818Z,99008.69
2022-11-15T12:32:36.720Z,99003.41
2022-11-15T12:35:04.674Z,99002.16
2022-11-15T12:37:34.435Z,98998.53
2022-11-15T12:40:07.181Z,98990.47
2022-11-15T12:42:42.979Z,98987.22
2022-11-15T12:45:45.206Z,98979.97
2022-11-15T12:48:17.627Z,98972.69
2022-11-15T12:50:54.628Z,98977.06
2022-11-15T12:53:24.160Z,98964.53
2022-11-15T12:56:05.820Z,98962.09
2022-11-15T12:58:50.953Z,98954.03
2022-11-15T13:01:36.404Z,98951.22
2022-11-15T13:04:23.186Z,98955.22
2022-11-15T13:06:50.969Z,98963.97
2022-11-15T13:09:38.669Z,98936.28
2022-11-15T13:12:08.702Z,98950.66
2022-11-15T13:14:38.645Z,98954.63
2022-11-15T13:17:20.595Z,98946.59
2022-11-15T13:19:48.223Z,98955.03
2022-11-15T13:22:33.950Z,98950.56
2022-11-15T13:25:02.748Z,98949.75
2022-11-15T13:27:29.978Z,98951.75
2022-11-15T13:29:56.622Z,98952.91
2022-11-15T13:32:23.402Z,98958.53
2022-11-15T13:34:53.958Z,98955.28
2022-11-15T13:37:23.414Z,98956.09
2022-11-15T13:39:50.659Z,98960.50
2022-11-15T13:42:18.761Z,98956.91
2022-11-15T13:44:59.263Z,98966.13
2022-11-15T13:47:30.120Z,98966.50
2022-11-15T13:50:00.452Z,98960.06
2022-11-15T13:52:30.126Z,98960.06
2022-11-15T13:55:00.407Z,98966.84
2022-11-15T13:57:30.147Z,98976.44
2022-11-15T13:59:58.565Z,98970.81
2022-11-15T14:02:33.399Z,98972.84
2022-11-15T14:05:14.902Z,98976.81
2022-11-15T14:07:44.479Z,98972.38
2022-11-15T14:10:18.766Z,98968.31
2022-11-15T14:12:52.116Z,98980.31
2022-11-15T14:15:35.825Z,98973.09
2022-11-15T14:18:03.161Z,98972.28
2022-11-15T14:20:31.983Z,98971.09
2022-11-15T14:23:17.432Z,98974.25
2022-11-15T14:25:53.112Z,98972.19
2022-11-15T14:28:19.661Z,98970.97
2022-11-15T14:30:51.392Z,98977.41
2022-11-15T14:33:22.645Z,98974.59
2022-11-15T14:35:49.494Z,98975.78
2022-11-15T14:38:16.330Z,98978.97
2022-11-15T14:40:43.490Z,98971.72
2022-11-15T14:43:11.613Z,98974.84
2022-11-15T14:45:38.696Z,98976.06
2022-11-15T14:48:05.747Z,98980.03
2022-11-15T14:50:33.141Z,98977.22
2022-11-15T14:52:59.931Z,98978.38
2022-11-15T14:55:26.532Z,98979.56
2022-11-15T14:57:56.000Z,98977.13
2022-11-15T15:00:23.314Z,98983.53
2022-11-15T15:02:51.606Z,98986.72
2022-11-15T15:05:20.253Z,98987.88
2022-11-15T15:07:47.712Z,98991.84
2022-11-15T15:10:39.076Z,98995.03
2022-11-15T15:13:02.284Z,98991.41
2022-11-15T15:15:36.418Z,98989.41
2022-11-15T15:18:03.824Z,98990.94
2022-11-15T15:20:30.655Z,98989.28
2022-11-15T15:22:57.789Z,98997.69
2022-11-15T15:25:33.131Z,98997.69
2022-11-15T15:28:00.197Z,99000.88
2022-11-15T15:30:27.966Z,99003.69
2022-11-15T15:32:55.204Z,98998.44
2022-11-15T15:35:21.790Z,99000.41
2022-11-15T15:37:49.494Z,99003.56
2022-11-15T15:40:21.301Z,99003.94
2022-11-15T15:42:54.130Z,99001.47
2022-11-15T15:45:20.880Z,99012.69
2022-11-15T15:47:47.515Z,99008.25
2022-11-15T15:50:14.426Z,99008.63
2022-11-15T15:52:41.141Z,99011.44
2022-11-15T15:55:08.078Z,99016.22
2022-11-15T15:57:34.810Z,99015.75
2022-11-15T16:00:01.575Z,99012.94
2022-11-15T16:02:28.195Z,99013.31
2022-11-15T16:04:54.809Z,99018.09
2022-11-15T16:07:29.382Z,99015.28
2022-11-15T16:10:02.362Z,99022.84
2022-11-15T16:12:30.079Z,99016.44
2022-11-15T16:14:56.844Z,99019.56
2022-11-15T16:17:25.893Z,99027.16
2022-11-15T16:19:54.565Z,99024.75
2022-11-15T16:22:21.456Z,99027.06
2022-11-15T16:24:48.082Z,99029.03
2022-11-15T16:27:18.495Z,99019.47
2022-11-15T16:29:45.367Z,99016.19
2022-11-15T16:32:12.425Z,99020.19
2022-11-15T16:34:42.803Z,99026.13
2022-11-15T16:37:22.702Z,99024.50
2022-11-15T16:39:49.460Z,99028.13
2022-11-15T16:42:16.218Z,99036.09
2022-11-15T16:44:42.931Z,99028.84
2022-11-15T16:47:23.078Z,99040.88
2022-11-15T16:49:49.835Z,99044.03
2022-11-15T16:52:21.219Z,99046.00
2022-11-15T16:54:48.230Z,99046.34
2022-11-15T16:57:14.827Z,99049.16
2022-11-15T16:59:41.450Z,99047.53
2022-11-15T17:02:12.700Z,99050.34
2022-11-15T17:04:39.392Z,99043.09
2022-11-15T17:07:06.131Z,99045.06
2022-11-15T17:09:33.350Z,99043.09
2022-11-15T17:11:59.973Z,99042.28
2022-11-15T17:14:26.561Z,99044.25
2022-11-15T17:16:54.490Z,99051.94
2022-11-15T17:19:21.814Z,99052.91
2022-11-15T17:21:51.524Z,99052.19
2022-11-15T17:24:18.224Z,99045.06
2022-11-15T17:26:44.847Z,99046.81
2022-11-15T17:29:11.610Z,99038.88
2022-11-15T17:31:38.698Z,99039.34
2022-11-15T17:34:06.384Z,99025.44
2022-11-15T17:36:33.192Z,99001.94
2022-11-15T17:39:01.454Z,99018.88
2022-11-15T17:41:29.334Z,99020.16
2022-11-15T17:43:58.141Z,99021.88
2022-11-15T17:46:24.788Z,99026.00
2022-11-15T17:48:51.697Z,99031.34
2022-11-15T17:51:19.360Z,99030.63
2022-11-15T17:53:47.659Z,99046.41
2022-11-15T17:56:15.534Z,99042.53
2022-11-15T17:58:42.381Z,99039.81
2022-11-15T18:01:10.540Z,99059.56
2022-11-15T18:03:37.566Z,99051.28
2022-11-15T18:06:05.281Z,99052.19
2022-11-15T18:08:32.142Z,99053.09
2022-11-15T18:11:04.608Z,99053.53
2022-11-15T18:13:31.733Z,99058.47
2022-11-15T18:16:02.770Z,99079.84
2022-11-15T18:18:30.587Z,99069.88
2022-11-15T18:21:03.899Z,99072.78
2022-11-15T18:23:32.815Z,99077.72
2022-11-15T18:26:00.335Z,99075.72
2022-11-15T18:28:34.496Z,99093.84
2022-11-15T18:31:01.885Z,99089.03
2022-11-15T18:33:28.853Z,99059.44
2022-11-15T18:36:00.256Z,99065.88
2022-11-15T18:38:31.036Z,99061.91
2022-11-15T18:40:58.981Z,99063.53
2022-11-15T18:43:26.256Z,99060.34
2022-11-15T18:45:53.146Z,99055.56
2022-11-15T18:48:19.852Z,99056.84
2022-11-15T18:50:46.969Z,99053.66
2022-11-15T18:53:13.639Z,99052.59
2022-11-15T18:55:40.267Z,99050.25
2022-11-15T18:58:06.864Z,99047.09
2022-11-15T19:00:33.560Z,99050.81
2022-11-15T19:03:00.341Z,99058.16
2022-11-15T19:05:27.031Z,99055.78
2022-11-15T19:07:55.850Z,99054.72
2022-11-15T19:13:05.776Z,99062.97
2022-11-15T19:15:51.842Z,99061.44
2022-11-15T19:18:18.669Z,99068.78
2022-11-15T19:20:45.374Z,99069.22
2022-11-15T19:23:12.177Z,99065.72
2022-11-15T19:25:39.232Z,99066.16
2022-11-15T19:28:05.960Z,99068.59
2022-11-15T19:30:32.558Z,99063.81
2022-11-15T19:33:11.546Z,99062.25
2022-11-15T19:35:38.436Z,99064.72
2022-11-15T19:38:06.006Z,99066.34
2022-11-15T19:40:36.247Z,99069.59
2022-11-15T19:43:03.711Z,99067.59
2022-11-15T19:45:30.605Z,99076.03
2022-11-15T19:47:58.915Z,99076.50
2022-11-15T19:50:25.849Z,99082.13
2022-11-15T19:52:56.210Z,99083.31
2022-11-15T19:55:22.965Z,99080.13
2022-11-15T19:57:49.735Z,99072.53
2022-11-15T20:00:16.482Z,99076.13
2022-11-15T20:02:43.144Z,99073.69
2022-11-15T20:05:13.001Z,99073.69
2022-11-15T20:07:43.780Z,99076.50
2022-11-15T20:10:10.524Z,99071.22
2022-11-15T20:12:37.231Z,99080.50
2022-11-15T20:15:04.015Z,99070.41
2022-11-15T20:17:37.683Z,99089.75
2022-11-15T20:20:04.475Z,99086.47
2022-11-15T20:22:31.129Z,99091.72
2022-11-15T20:24:57.783Z,99081.28
2022-11-15T20:27:24.953Z,99078.84
2022-11-15T20:29:52.082Z,99073.31
2022-11-15T20:32:18.918Z,99076.13
2022-11-15T20:34:51.442Z,99076.13
2022-11-15T20:37:20.749Z,99085.75
2022-11-15T20:39:47.507Z,99094.50
2022-11-15T20:42:19.422Z,99092.91
2022-11-15T20:44:45.996Z,99096.16
2022-11-15T20:47:12.662Z,99104.25
2022-11-15T20:49:39.231Z,99115.84
2022-11-15T20:52:05.861Z,99111.38
2022-11-15T20:54:32.448Z,99118.19
2022-11-15T20:56:59.017Z,99117.38
2022-11-15T20:59:25.582Z,99121.38
2022-11-15T21:05:05.586Z,99128.88
2022-11-15T21:07:32.262Z,99136.41
2022-11-15T21:10:17.469Z,99146.34
2022-11-15T21:12:49.341Z,99144.84
2022-11-15T21:15:15.987Z,99143.19
2022-11-15T21:17:42.655Z,99143.34
2022-11-15T21:20:09.625Z,99145.81
2022-11-15T21:22:36.232Z,99138.19
2022-11-15T21:25:02.872Z,99145.34
2022-11-15T21:27:29.666Z,99143.13
2022-11-15T21:29:56.432Z,99129.47
2022-11-15T21:32:25.310Z,99131.09
2022-11-15T21:34:51.906Z,99131.91
2022-11-15T21:37:18.513Z,99127.47
2022-11-15T21:39:45.270Z,99135.78
2022-11-15T21:42:11.912Z,99130.97
2022-11-15T21:44:38.618Z,99135.00
2022-11-15T21:47:05.331Z,99136.59
2022-11-15T21:49:31.925Z,99140.22
2022-11-15T21:51:59.870Z,99143.84
2022-11-15T21:54:26.528Z,99136.97
2022-11-15T21:56:53.131Z,99130.16
2022-11-15T21:59:20.008Z,99133.78
2022-11-15T22:02:04.986Z,99123.75
2022-11-15T22:04:31.554Z,99118.13
2022-11-15T22:06:58.261Z,99131.38
2022-11-15T22:09:25.231Z,99134.53
2022-11-15T22:11:51.840Z,99124.44
2022-11-15T22:14:18.427Z,99135.69
2022-11-15T22:16:45.048Z,99130.06
2022-11-15T22:19:11.824Z,99137.22
2022-11-15T22:21:40.005Z,99136.41
2022-11-15T22:24:07.008Z,99132.78
2022-11-15T22:26:33.748Z,99133.13
2022-11-15T22:29:00.450Z,99132.31
2022-11-15T22:31:27.105Z,99140.63
2022-11-15T22:33:53.706Z,99135.03
2022-11-15T22:36:20.394Z,99124.94
2022-11-15T22:38:47.053Z,99130.56
2022-11-15T22:41:13.656Z,99128.97
2022-11-15T22:43:40.282Z,99130.13
2022-11-15T22:46:06.971Z,99121.69
2022-11-15T22:48:35.005Z,99130.13
2022-11-15T22:51:02.295Z,99134.56
2022-11-15T22:53:29.486Z,99135.03
2022-11-15T22:55:57.154Z,99131.53
2022-11-15T22:58:24.873Z,99127.97
2022-11-15T23:00:52.141Z,99126.56
2022-11-15T23:03:19.809Z,99127.00
2022-11-15T23:05:46.832Z,99133.53
2022-11-15T23:08:13.878Z,99126.41
2022-11-15T23:10:59.099Z,99130.47
2022-11-15T23:13:27.285Z,99132.56
2022-11-15T23:16:20.325Z,99127.41
2022-11-15T23:18:47.243Z,99136.75
2022-11-15T23:21:15.493Z,99140.03
2022-11-15T23:23:42.545Z,99114.00
2022-11-15T23:26:09.292Z,99119.28
2022-11-15T23:28:36.294Z,99114.91
2022-11-15T23:31:22.685Z,99110.94
2022-11-15T23:33:58.186Z,99107.78
2022-11-15T23:36:28.626Z,99096.16
2022-11-15T23:38:55.624Z,99105.06
2022-11-15T23:41:23.912Z,99104.69
2022-11-15T23:43:51.003Z,99099.53
2022-11-15T23:46:17.854Z,99106.78
2022-11-15T23:48:44.628Z,99108.78
2022-11-15T23:51:11.442Z,99109.22
2022-11-15T23:53:38.109Z,99117.66
2022-11-15T23:56:06.365Z,99110.03
2022-11-15T23:58:33.378Z,99122.91
